sensor_id;sensor_type;location;lat;lon;timestamp;P1;durP1;ratioP1;P2;durP2;ratioP2
15603;SDS011;7902;49.042;9.092;2023-03-15T00:02:06;11.80;;;3.70;;
15603;SDS011;7902;49.042;9.092;2023-03-15T00:04:31;11.83;;;3.30;;
15603;SDS011;7902;49.042;9.092;2023-03-15T00:06:58;15.77;;;3.27;;
15603;SDS011;7902;49.042;9.092;2023-03-15T00:09:24;9.93;;;3.00;;
15603;SDS011;7902;49.042;9.092;2023-03-15T00:11:50;15.73;;;4.00;;
15603;SDS011;7902;49.042;9.092;2023-03-15T00:14:19;12.40;;;3.93;;
15603;SDS011;7902;49.042;9.092;2023-03-15T00:16:45;9.97;;;3.80;;
15603;SDS011;7902;49.042;9.092;2023-03-15T00:19:12;9.57;;;2.90;;
15603;SDS011;7902;49.042;9.092;2023-03-15T00:21:38;14.23;;;3.53;;
15603;SDS011;7902;49.042;9.092;2023-03-15T00:24:10;13.63;;;3.97;;
15603;SDS011;7902;49.042;9.092;2023-03-15T00:26:37;14.17;;;3.97;;
15603;SDS011;7902;49.042;9.092;2023-03-15T00:29:03;11.33;;;2.80;;
15603;SDS011;7902;49.042;9.092;2023-03-15T00:31:30;13.97;;;3.70;;
15603;SDS011;7902;49.042;9.092;2023-03-15T00:33:56;14.63;;;3.63;;
15603;SDS011;7902;49.042;9.092;2023-03-15T00:36:22;11.50;;;3.67;;
15603;SDS011;7902;49.042;9.092;2023-03-15T00:38:50;12.87;;;3.93;;
15603;SDS011;7902;49.042;9.092;2023-03-15T00:41:18;23.63;;;3.80;;
15603;SDS011;7902;49.042;9.092;2023-03-15T00:43:45;14.70;;;3.70;;
15603;SDS011;7902;49.042;9.092;2023-03-15T00:46:11;12.43;;;4.00;;
15603;SDS011;7902;49.042;9.092;2023-03-15T00:48:38;14.60;;;3.43;;
15603;SDS011;7902;49.042;9.092;2023-03-15T00:51:08;13.00;;;4.07;;
15603;SDS011;7902;49.042;9.092;2023-03-15T00:53:43;14.30;;;3.67;;
15603;SDS011;7902;49.042;9.092;2023-03-15T00:56:11;11.73;;;3.33;;
15603;SDS011;7902;49.042;9.092;2023-03-15T00:58:39;18.77;;;3.83;;
15603;SDS011;7902;49.042;9.092;2023-03-15T01:01:09;13.20;;;3.37;;
15603;SDS011;7902;49.042;9.092;2023-03-15T01:03:41;11.37;;;3.13;;
15603;SDS011;7902;49.042;9.092;2023-03-15T01:06:08;11.23;;;2.80;;
15603;SDS011;7902;49.042;9.092;2023-03-15T01:08:39;15.70;;;3.50;;
15603;SDS011;7902;49.042;9.092;2023-03-15T01:11:06;14.87;;;4.03;;
15603;SDS011;7902;49.042;9.092;2023-03-15T01:13:34;14.10;;;3.00;;
15603;SDS011;7902;49.042;9.092;2023-03-15T01:16:00;15.27;;;3.77;;
15603;SDS011;7902;49.042;9.092;2023-03-15T01:18:27;9.70;;;2.70;;
15603;SDS011;7902;49.042;9.092;2023-03-15T01:20:53;12.10;;;2.90;;
15603;SDS011;7902;49.042;9.092;2023-03-15T01:23:19;12.07;;;2.53;;
15603;SDS011;7902;49.042;9.092;2023-03-15T01:25:45;10.67;;;2.03;;
15603;SDS011;7902;49.042;9.092;2023-03-15T01:28:11;7.57;;;1.70;;
15603;SDS011;7902;49.042;9.092;2023-03-15T01:30:37;10.57;;;1.90;;
15603;SDS011;7902;49.042;9.092;2023-03-15T01:33:03;13.37;;;1.80;;
15603;SDS011;7902;49.042;9.092;2023-03-15T01:35:30;12.93;;;1.53;;
15603;SDS011;7902;49.042;9.092;2023-03-15T01:37:56;11.43;;;1.47;;
15603;SDS011;7902;49.042;9.092;2023-03-15T01:40:22;11.67;;;2.20;;
15603;SDS011;7902;49.042;9.092;2023-03-15T01:43:30;8.40;;;1.70;;
15603;SDS011;7902;49.042;9.092;2023-03-15T01:56:39;8.00;;;1.20;;
15603;SDS011;7902;49.042;9.092;2023-03-15T01:59:10;14.00;;;1.50;;
15603;SDS011;7902;49.042;9.092;2023-03-15T02:01:46;9.53;;;1.40;;
15603;SDS011;7902;49.042;9.092;2023-03-15T02:04:18;11.47;;;1.40;;
15603;SDS011;7902;49.042;9.092;2023-03-15T02:06:49;9.83;;;1.83;;
15603;SDS011;7902;49.042;9.092;2023-03-15T02:09:24;11.83;;;2.30;;
15603;SDS011;7902;49.042;9.092;2023-03-15T02:11:57;9.40;;;1.23;;
15603;SDS011;7902;49.042;9.092;2023-03-15T02:14:23;8.60;;;1.70;;
15603;SDS011;7902;49.042;9.092;2023-03-15T02:16:49;11.20;;;1.40;;
15603;SDS011;7902;49.042;9.092;2023-03-15T02:20:01;9.37;;;1.20;;
15603;SDS011;7902;49.042;9.092;2023-03-15T02:22:40;8.30;;;0.90;;
15603;SDS011;7902;49.042;9.092;2023-03-15T02:25:27;13.50;;;1.30;;
15603;SDS011;7902;49.042;9.092;2023-03-15T02:27:57;9.20;;;1.70;;
15603;SDS011;7902;49.042;9.092;2023-03-15T02:30:23;12.70;;;1.00;;
15603;SDS011;7902;49.042;9.092;2023-03-15T02:32:49;10.30;;;1.30;;
15603;SDS011;7902;49.042;9.092;2023-03-15T02:35:22;10.67;;;1.20;;
15603;SDS011;7902;49.042;9.092;2023-03-15T02:37:53;9.90;;;1.17;;
15603;SDS011;7902;49.042;9.092;2023-03-15T02:40:20;8.83;;;1.27;;
15603;SDS011;7902;49.042;9.092;2023-03-15T02:42:47;15.83;;;1.20;;
15603;SDS011;7902;49.042;9.092;2023-03-15T02:45:18;18.07;;;1.37;;
15603;SDS011;7902;49.042;9.092;2023-03-15T02:47:45;8.80;;;1.40;;
15603;SDS011;7902;49.042;9.092;2023-03-15T02:50:12;9.23;;;1.50;;
15603;SDS011;7902;49.042;9.092;2023-03-15T02:52:38;10.00;;;1.47;;
15603;SDS011;7902;49.042;9.092;2023-03-15T02:55:04;8.20;;;1.43;;
15603;SDS011;7902;49.042;9.092;2023-03-15T02:57:30;13.90;;;1.50;;
15603;SDS011;7902;49.042;9.092;2023-03-15T02:59:56;11.30;;;1.30;;
15603;SDS011;7902;49.042;9.092;2023-03-15T03:02:23;7.33;;;1.20;;
15603;SDS011;7902;49.042;9.092;2023-03-15T03:04:49;7.57;;;1.23;;
15603;SDS011;7902;49.042;9.092;2023-03-15T03:07:17;9.23;;;1.47;;
15603;SDS011;7902;49.042;9.092;2023-03-15T03:09:44;14.50;;;1.50;;
15603;SDS011;7902;49.042;9.092;2023-03-15T03:12:10;9.43;;;1.20;;
15603;SDS011;7902;49.042;9.092;2023-03-15T03:14:35;9.93;;;1.67;;
15603;SDS011;7902;49.042;9.092;2023-03-15T03:17:01;9.50;;;1.60;;
15603;SDS011;7902;49.042;9.092;2023-03-15T03:19:27;7.30;;;1.20;;
15603;SDS011;7902;49.042;9.092;2023-03-15T03:21:53;8.63;;;1.43;;
15603;SDS011;7902;49.042;9.092;2023-03-15T03:24:19;7.73;;;1.57;;
15603;SDS011;7902;49.042;9.092;2023-03-15T03:26:45;14.67;;;1.40;;
15603;SDS011;7902;49.042;9.092;2023-03-15T03:29:12;10.20;;;1.80;;
15603;SDS011;7902;49.042;9.092;2023-03-15T03:31:41;7.30;;;1.30;;
15603;SDS011;7902;49.042;9.092;2023-03-15T03:34:07;23.77;;;1.83;;
15603;SDS011;7902;49.042;9.092;2023-03-15T03:36:35;14.93;;;1.50;;
15603;SDS011;7902;49.042;9.092;2023-03-15T03:39:01;8.20;;;1.80;;
15603;SDS011;7902;49.042;9.092;2023-03-15T03:41:27;7.73;;;1.23;;
15603;SDS011;7902;49.042;9.092;2023-03-15T03:43:53;11.63;;;1.40;;
15603;SDS011;7902;49.042;9.092;2023-03-15T03:46:19;9.00;;;1.40;;
15603;SDS011;7902;49.042;9.092;2023-03-15T03:48:45;8.47;;;1.60;;
15603;SDS011;7902;49.042;9.092;2023-03-15T03:51:11;11.20;;;1.70;;
15603;SDS011;7902;49.042;9.092;2023-03-15T03:53:37;6.70;;;1.23;;
15603;SDS011;7902;49.042;9.092;2023-03-15T03:56:06;8.73;;;1.63;;
15603;SDS011;7902;49.042;9.092;2023-03-15T03:58:33;13.40;;;2.77;;
15603;SDS011;7902;49.042;9.092;2023-03-15T04:00:58;11.73;;;1.70;;
15603;SDS011;7902;49.042;9.092;2023-03-15T04:03:25;9.37;;;2.03;;
15603;SDS011;7902;49.042;9.092;2023-03-15T04:05:54;11.70;;;1.53;;
15603;SDS011;7902;49.042;9.092;2023-03-15T04:08:24;10.80;;;2.20;;
15603;SDS011;7902;49.042;9.092;2023-03-15T04:10:51;9.27;;;1.60;;
15603;SDS011;7902;49.042;9.092;2023-03-15T04:13:18;14.83;;;2.13;;
15603;SDS011;7902;49.042;9.092;2023-03-15T04:15:45;11.63;;;2.10;;
15603;SDS011;7902;49.042;9.092;2023-03-15T04:18:12;9.80;;;1.63;;
15603;SDS011;7902;49.042;9.092;2023-03-15T04:20:38;12.03;;;2.57;;
15603;SDS011;7902;49.042;9.092;2023-03-15T04:23:12;9.00;;;1.80;;
15603;SDS011;7902;49.042;9.092;2023-03-15T04:25:38;10.80;;;1.87;;
15603;SDS011;7902;49.042;9.092;2023-03-15T04:28:04;13.47;;;2.30;;
15603;SDS011;7902;49.042;9.092;2023-03-15T04:30:30;11.80;;;3.30;;
15603;SDS011;7902;49.042;9.092;2023-03-15T04:32:56;14.97;;;3.50;;
15603;SDS011;7902;49.042;9.092;2023-03-15T04:35:28;11.83;;;2.53;;
15603;SDS011;7902;49.042;9.092;2023-03-15T04:37:56;9.57;;;2.00;;
15603;SDS011;7902;49.042;9.092;2023-03-15T04:40:23;19.57;;;2.30;;
15603;SDS011;7902;49.042;9.092;2023-03-15T04:42:50;12.70;;;2.97;;
15603;SDS011;7902;49.042;9.092;2023-03-15T04:45:20;11.93;;;1.90;;
15603;SDS011;7902;49.042;9.092;2023-03-15T04:47:47;12.57;;;2.57;;
15603;SDS011;7902;49.042;9.092;2023-03-15T04:50:14;11.13;;;2.20;;
15603;SDS011;7902;49.042;9.092;2023-03-15T04:52:40;10.77;;;2.17;;
15603;SDS011;7902;49.042;9.092;2023-03-15T04:55:06;13.30;;;2.43;;
15603;SDS011;7902;49.042;9.092;2023-03-15T04:57:32;13.20;;;2.13;;
15603;SDS011;7902;49.042;9.092;2023-03-15T04:59:58;10.27;;;1.90;;
15603;SDS011;7902;49.042;9.092;2023-03-15T05:02:24;17.33;;;2.47;;
15603;SDS011;7902;49.042;9.092;2023-03-15T05:04:50;12.80;;;2.90;;
15603;SDS011;7902;49.042;9.092;2023-03-15T05:07:16;9.97;;;2.53;;
15603;SDS011;7902;49.042;9.092;2023-03-15T05:09:42;10.53;;;2.60;;
15603;SDS011;7902;49.042;9.092;2023-03-15T05:12:11;16.87;;;3.33;;
15603;SDS011;7902;49.042;9.092;2023-03-15T05:14:37;24.13;;;3.50;;
15603;SDS011;7902;49.042;9.092;2023-03-15T05:17:03;14.17;;;4.60;;
15603;SDS011;7902;49.042;9.092;2023-03-15T05:19:30;16.80;;;4.13;;
15603;SDS011;7902;49.042;9.092;2023-03-15T05:21:59;11.20;;;3.43;;
15603;SDS011;7902;49.042;9.092;2023-03-15T05:24:25;15.43;;;4.43;;
15603;SDS011;7902;49.042;9.092;2023-03-15T05:26:51;15.20;;;3.73;;
15603;SDS011;7902;49.042;9.092;2023-03-15T05:29:19;12.37;;;3.63;;
15603;SDS011;7902;49.042;9.092;2023-03-15T05:31:46;21.47;;;6.40;;
15603;SDS011;7902;49.042;9.092;2023-03-15T05:34:13;19.60;;;5.43;;
15603;SDS011;7902;49.042;9.092;2023-03-15T05:36:39;25.57;;;7.93;;
15603;SDS011;7902;49.042;9.092;2023-03-15T05:39:06;23.97;;;6.50;;
15603;SDS011;7902;49.042;9.092;2023-03-15T05:41:33;18.43;;;6.20;;
15603;SDS011;7902;49.042;9.092;2023-03-15T05:43:59;49.03;;;18.80;;
15603;SDS011;7902;49.042;9.092;2023-03-15T05:46:25;30.23;;;10.63;;
15603;SDS011;7902;49.042;9.092;2023-03-15T05:48:51;13.67;;;5.70;;
15603;SDS011;7902;49.042;9.092;2023-03-15T05:51:18;17.33;;;5.60;;
15603;SDS011;7902;49.042;9.092;2023-03-15T05:53:44;13.37;;;3.67;;
15603;SDS011;7902;49.042;9.092;2023-03-15T05:56:10;15.43;;;3.37;;
15603;SDS011;7902;49.042;9.092;2023-03-15T05:58:36;15.17;;;3.20;;
15603;SDS011;7902;49.042;9.092;2023-03-15T06:01:02;21.10;;;3.43;;
15603;SDS011;7902;49.042;9.092;2023-03-15T06:03:29;14.23;;;3.13;;
15603;SDS011;7902;49.042;9.092;2023-03-15T06:05:59;12.37;;;2.10;;
15603;SDS011;7902;49.042;9.092;2023-03-15T06:08:25;10.23;;;3.10;;
15603;SDS011;7902;49.042;9.092;2023-03-15T06:10:51;11.30;;;2.33;;
15603;SDS011;7902;49.042;9.092;2023-03-15T06:13:17;12.90;;;3.07;;
15603;SDS011;7902;49.042;9.092;2023-03-15T06:15:45;9.83;;;2.27;;
15603;SDS011;7902;49.042;9.092;2023-03-15T06:18:11;15.53;;;2.73;;
15603;SDS011;7902;49.042;9.092;2023-03-15T06:26:45;14.57;;;2.60;;
15603;SDS011;7902;49.042;9.092;2023-03-15T06:29:11;10.23;;;1.83;;
15603;SDS011;7902;49.042;9.092;2023-03-15T06:31:37;8.40;;;1.90;;
15603;SDS011;7902;49.042;9.092;2023-03-15T06:34:03;10.33;;;2.10;;
15603;SDS011;7902;49.042;9.092;2023-03-15T06:36:29;14.10;;;1.90;;
15603;SDS011;7902;49.042;9.092;2023-03-15T06:38:56;8.03;;;1.63;;
15603;SDS011;7902;49.042;9.092;2023-03-15T06:41:22;8.77;;;2.30;;
15603;SDS011;7902;49.042;9.092;2023-03-15T06:43:48;18.53;;;2.07;;
15603;SDS011;7902;49.042;9.092;2023-03-15T06:46:14;8.70;;;1.87;;
15603;SDS011;7902;49.042;9.092;2023-03-15T06:48:40;9.27;;;1.90;;
15603;SDS011;7902;49.042;9.092;2023-03-15T06:51:06;17.33;;;2.47;;
15603;SDS011;7902;49.042;9.092;2023-03-15T06:53:32;13.27;;;2.00;;
15603;SDS011;7902;49.042;9.092;2023-03-15T06:55:59;16.63;;;3.50;;
15603;SDS011;7902;49.042;9.092;2023-03-15T06:58:25;14.03;;;2.30;;
15603;SDS011;7902;49.042;9.092;2023-03-15T07:00:51;10.93;;;2.30;;
15603;SDS011;7902;49.042;9.092;2023-03-15T07:03:16;10.73;;;1.90;;
15603;SDS011;7902;49.042;9.092;2023-03-15T07:05:43;19.00;;;2.67;;
15603;SDS011;7902;49.042;9.092;2023-03-15T07:08:11;15.83;;;1.60;;
15603;SDS011;7902;49.042;9.092;2023-03-15T07:10:36;10.83;;;1.57;;
15603;SDS011;7902;49.042;9.092;2023-03-15T07:13:02;12.47;;;2.27;;
15603;SDS011;7902;49.042;9.092;2023-03-15T07:15:29;12.80;;;2.03;;
15603;SDS011;7902;49.042;9.092;2023-03-15T07:17:55;16.17;;;2.30;;
15603;SDS011;7902;49.042;9.092;2023-03-15T07:20:21;15.23;;;2.10;;
15603;SDS011;7902;49.042;9.092;2023-03-15T07:22:47;10.70;;;2.07;;
15603;SDS011;7902;49.042;9.092;2023-03-15T07:25:14;18.40;;;2.70;;
15603;SDS011;7902;49.042;9.092;2023-03-15T07:27:40;15.00;;;3.20;;
15603;SDS011;7902;49.042;9.092;2023-03-15T07:30:06;14.10;;;2.47;;
15603;SDS011;7902;49.042;9.092;2023-03-15T07:32:34;14.67;;;2.40;;
15603;SDS011;7902;49.042;9.092;2023-03-15T07:34:59;27.43;;;2.70;;
15603;SDS011;7902;49.042;9.092;2023-03-15T07:37:26;12.33;;;2.00;;
15603;SDS011;7902;49.042;9.092;2023-03-15T07:39:53;15.37;;;2.47;;
15603;SDS011;7902;49.042;9.092;2023-03-15T07:42:20;13.30;;;2.10;;
15603;SDS011;7902;49.042;9.092;2023-03-15T07:44:46;14.00;;;1.80;;
15603;SDS011;7902;49.042;9.092;2023-03-15T07:47:12;16.83;;;2.07;;
15603;SDS011;7902;49.042;9.092;2023-03-15T07:49:37;13.27;;;2.00;;
15603;SDS011;7902;49.042;9.092;2023-03-15T07:52:03;14.80;;;2.07;;
15603;SDS011;7902;49.042;9.092;2023-03-15T07:54:29;9.30;;;2.20;;
15603;SDS011;7902;49.042;9.092;2023-03-15T07:56:56;19.20;;;2.37;;
15603;SDS011;7902;49.042;9.092;2023-03-15T07:59:22;13.03;;;2.00;;
15603;SDS011;7902;49.042;9.092;2023-03-15T08:01:48;13.70;;;2.13;;
15603;SDS011;7902;49.042;9.092;2023-03-15T08:04:14;13.80;;;1.60;;
15603;SDS011;7902;49.042;9.092;2023-03-15T08:06:39;9.80;;;1.67;;
15603;SDS011;7902;49.042;9.092;2023-03-15T08:09:05;15.07;;;2.40;;
15603;SDS011;7902;49.042;9.092;2023-03-15T08:11:32;15.10;;;1.90;;
15603;SDS011;7902;49.042;9.092;2023-03-15T08:13:58;19.93;;;2.40;;
15603;SDS011;7902;49.042;9.092;2023-03-15T08:16:24;15.27;;;1.70;;
15603;SDS011;7902;49.042;9.092;2023-03-15T08:18:50;13.00;;;2.50;;
15603;SDS011;7902;49.042;9.092;2023-03-15T08:21:16;12.00;;;2.00;;
15603;SDS011;7902;49.042;9.092;2023-03-15T08:23:42;14.63;;;2.27;;
15603;SDS011;7902;49.042;9.092;2023-03-15T08:26:07;11.77;;;1.83;;
15603;SDS011;7902;49.042;9.092;2023-03-15T08:28:33;19.20;;;2.43;;
15603;SDS011;7902;49.042;9.092;2023-03-15T08:30:59;15.63;;;1.90;;
15603;SDS011;7902;49.042;9.092;2023-03-15T08:33:25;16.30;;;2.53;;
15603;SDS011;7902;49.042;9.092;2023-03-15T08:35:54;12.23;;;2.13;;
15603;SDS011;7902;49.042;9.092;2023-03-15T08:38:20;14.30;;;1.70;;
15603;SDS011;7902;49.042;9.092;2023-03-15T08:40:46;16.93;;;2.17;;
15603;SDS011;7902;49.042;9.092;2023-03-15T08:43:12;15.60;;;2.00;;
15603;SDS011;7902;49.042;9.092;2023-03-15T08:45:38;13.83;;;2.17;;
15603;SDS011;7902;49.042;9.092;2023-03-15T08:48:04;17.00;;;3.60;;
15603;SDS011;7902;49.042;9.092;2023-03-15T08:50:30;13.70;;;2.40;;
15603;SDS011;7902;49.042;9.092;2023-03-15T08:52:57;20.83;;;3.47;;
15603;SDS011;7902;49.042;9.092;2023-03-15T08:55:23;18.63;;;2.27;;
15603;SDS011;7902;49.042;9.092;2023-03-15T08:57:49;15.10;;;1.70;;
15603;SDS011;7902;49.042;9.092;2023-03-15T09:00:15;19.00;;;1.77;;
15603;SDS011;7902;49.042;9.092;2023-03-15T09:02:45;17.97;;;2.00;;
15603;SDS011;7902;49.042;9.092;2023-03-15T09:05:15;14.10;;;2.00;;
15603;SDS011;7902;49.042;9.092;2023-03-15T09:07:41;18.17;;;2.33;;
15603;SDS011;7902;49.042;9.092;2023-03-15T09:10:08;11.47;;;1.60;;
15603;SDS011;7902;49.042;9.092;2023-03-15T09:12:37;18.30;;;2.70;;
15603;SDS011;7902;49.042;9.092;2023-03-15T09:15:03;22.00;;;1.90;;
15603;SDS011;7902;49.042;9.092;2023-03-15T09:17:29;13.20;;;1.47;;
15603;SDS011;7902;49.042;9.092;2023-03-15T09:19:56;13.80;;;1.73;;
15603;SDS011;7902;49.042;9.092;2023-03-15T09:22:22;17.83;;;1.87;;
15603;SDS011;7902;49.042;9.092;2023-03-15T09:24:47;10.17;;;1.43;;
15603;SDS011;7902;49.042;9.092;2023-03-15T09:27:13;10.73;;;1.20;;
15603;SDS011;7902;49.042;9.092;2023-03-15T09:29:39;19.23;;;1.70;;
15603;SDS011;7902;49.042;9.092;2023-03-15T09:32:05;13.10;;;1.80;;
15603;SDS011;7902;49.042;9.092;2023-03-15T09:34:31;19.00;;;1.70;;
15603;SDS011;7902;49.042;9.092;2023-03-15T09:36:57;12.70;;;1.20;;
15603;SDS011;7902;49.042;9.092;2023-03-15T09:39:23;15.57;;;2.03;;
15603;SDS011;7902;49.042;9.092;2023-03-15T09:41:50;12.20;;;1.60;;
15603;SDS011;7902;49.042;9.092;2023-03-15T09:45:03;14.83;;;1.63;;
15603;SDS011;7902;49.042;9.092;2023-03-15T09:50:19;16.30;;;1.40;;
15603;SDS011;7902;49.042;9.092;2023-03-15T09:52:53;9.83;;;1.10;;
15603;SDS011;7902;49.042;9.092;2023-03-15T09:55:25;12.03;;;1.50;;
15603;SDS011;7902;49.042;9.092;2023-03-15T09:57:52;17.13;;;1.67;;
15603;SDS011;7902;49.042;9.092;2023-03-15T10:00:20;12.60;;;1.60;;
15603;SDS011;7902;49.042;9.092;2023-03-15T10:02:56;12.13;;;1.10;;
15603;SDS011;7902;49.042;9.092;2023-03-15T10:05:29;9.80;;;1.13;;
15603;SDS011;7902;49.042;9.092;2023-03-15T10:07:59;11.20;;;1.07;;
15603;SDS011;7902;49.042;9.092;2023-03-15T10:10:32;10.53;;;1.30;;
15603;SDS011;7902;49.042;9.092;2023-03-15T10:13:24;14.37;;;1.40;;
15603;SDS011;7902;49.042;9.092;2023-03-15T10:16:14;12.27;;;0.97;;
15603;SDS011;7902;49.042;9.092;2023-03-15T10:18:56;8.60;;;0.73;;
15603;SDS011;7902;49.042;9.092;2023-03-15T10:23:58;20.90;;;2.03;;
15603;SDS011;7902;49.042;9.092;2023-03-15T10:26:29;12.67;;;1.07;;
15603;SDS011;7902;49.042;9.092;2023-03-15T10:28:57;9.63;;;1.43;;
15603;SDS011;7902;49.042;9.092;2023-03-15T10:31:29;11.67;;;1.30;;
15603;SDS011;7902;49.042;9.092;2023-03-15T10:34:09;10.73;;;1.10;;
15603;SDS011;7902;49.042;9.092;2023-03-15T10:36:42;12.70;;;1.17;;
15603;SDS011;7902;49.042;9.092;2023-03-15T10:39:09;10.93;;;1.10;;
15603;SDS011;7902;49.042;9.092;2023-03-15T10:41:38;21.43;;;1.40;;
15603;SDS011;7902;49.042;9.092;2023-03-15T10:44:21;12.70;;;1.07;;
15603;SDS011;7902;49.042;9.092;2023-03-15T10:46:59;13.37;;;2.13;;
15603;SDS011;7902;49.042;9.092;2023-03-15T10:49:38;12.63;;;1.30;;
15603;SDS011;7902;49.042;9.092;2023-03-15T10:52:06;10.10;;;1.00;;
15603;SDS011;7902;49.042;9.092;2023-03-15T10:54:48;11.43;;;1.20;;
15603;SDS011;7902;49.042;9.092;2023-03-15T10:57:16;11.50;;;1.47;;
15603;SDS011;7902;49.042;9.092;2023-03-15T11:02:31;12.63;;;1.50;;
15603;SDS011;7902;49.042;9.092;2023-03-15T11:04:58;9.97;;;1.00;;
15603;SDS011;7902;49.042;9.092;2023-03-15T11:07:59;9.87;;;1.00;;
15603;SDS011;7902;49.042;9.092;2023-03-15T11:10:26;11.17;;;1.00;;
15603;SDS011;7902;49.042;9.092;2023-03-15T11:13:11;11.03;;;1.07;;
15603;SDS011;7902;49.042;9.092;2023-03-15T11:15:51;10.63;;;1.47;;
15603;SDS011;7902;49.042;9.092;2023-03-15T11:18:25;11.37;;;1.20;;
15603;SDS011;7902;49.042;9.092;2023-03-15T11:20:54;12.97;;;1.63;;
15603;SDS011;7902;49.042;9.092;2023-03-15T11:23:26;18.33;;;1.80;;
15603;SDS011;7902;49.042;9.092;2023-03-15T11:25:54;11.23;;;1.60;;
15603;SDS011;7902;49.042;9.092;2023-03-15T11:28:22;9.20;;;1.27;;
15603;SDS011;7902;49.042;9.092;2023-03-15T11:30:51;10.43;;;1.60;;
15603;SDS011;7902;49.042;9.092;2023-03-15T11:34:07;12.67;;;1.70;;
15603;SDS011;7902;49.042;9.092;2023-03-15T11:36:16;13.70;;;1.90;;
15603;SDS011;7902;49.042;9.092;2023-03-15T11:38:45;10.20;;;1.43;;
15603;SDS011;7902;49.042;9.092;2023-03-15T11:49:55;11.70;;;1.50;;
15603;SDS011;7902;49.042;9.092;2023-03-15T11:52:23;12.50;;;1.90;;
15603;SDS011;7902;49.042;9.092;2023-03-15T11:54:53;13.37;;;2.20;;
15603;SDS011;7902;49.042;9.092;2023-03-15T11:59:54;11.20;;;1.93;;
15603;SDS011;7902;49.042;9.092;2023-03-15T12:04:51;7.70;;;1.40;;
15603;SDS011;7902;49.042;9.092;2023-03-15T12:09:50;9.43;;;1.53;;
15603;SDS011;7902;49.042;9.092;2023-03-15T12:20:16;19.60;;;1.70;;
15603;SDS011;7902;49.042;9.092;2023-03-15T12:22:49;10.10;;;1.70;;
15603;SDS011;7902;49.042;9.092;2023-03-15T12:25:36;9.70;;;1.87;;
15603;SDS011;7902;49.042;9.092;2023-03-15T12:28:05;14.47;;;1.97;;
15603;SDS011;7902;49.042;9.092;2023-03-15T12:30:40;8.50;;;1.47;;
15603;SDS011;7902;49.042;9.092;2023-03-15T12:33:16;11.63;;;2.00;;
15603;SDS011;7902;49.042;9.092;2023-03-15T12:35:45;11.30;;;1.77;;
15603;SDS011;7902;49.042;9.092;2023-03-15T12:38:16;11.53;;;2.20;;
15603;SDS011;7902;49.042;9.092;2023-03-15T12:40:55;10.83;;;2.37;;
15603;SDS011;7902;49.042;9.092;2023-03-15T12:49:13;9.40;;;1.40;;
15603;SDS011;7902;49.042;9.092;2023-03-15T12:51:43;11.43;;;1.57;;
15603;SDS011;7902;49.042;9.092;2023-03-15T12:54:22;9.43;;;1.47;;
15603;SDS011;7902;49.042;9.092;2023-03-15T12:59:49;11.40;;;1.57;;
15603;SDS011;7902;49.042;9.092;2023-03-15T13:05:22;13.57;;;1.73;;
15603;SDS011;7902;49.042;9.092;2023-03-15T13:08:03;12.67;;;1.93;;
15603;SDS011;7902;49.042;9.092;2023-03-15T13:10:35;11.70;;;1.60;;
15603;SDS011;7902;49.042;9.092;2023-03-15T13:15:58;11.23;;;1.67;;
15603;SDS011;7902;49.042;9.092;2023-03-15T13:18:26;14.07;;;2.43;;
15603;SDS011;7902;49.042;9.092;2023-03-15T13:23:31;13.23;;;2.03;;
15603;SDS011;7902;49.042;9.092;2023-03-15T13:29:03;13.93;;;1.37;;
15603;SDS011;7902;49.042;9.092;2023-03-15T13:31:37;9.37;;;1.27;;
15603;SDS011;7902;49.042;9.092;2023-03-15T13:34:18;16.13;;;2.80;;
15603;SDS011;7902;49.042;9.092;2023-03-15T13:36:49;11.13;;;1.80;;
15603;SDS011;7902;49.042;9.092;2023-03-15T13:39:20;11.47;;;2.10;;
15603;SDS011;7902;49.042;9.092;2023-03-15T13:41:49;12.20;;;1.63;;
15603;SDS011;7902;49.042;9.092;2023-03-15T13:44:22;12.93;;;2.10;;
15603;SDS011;7902;49.042;9.092;2023-03-15T13:46:50;11.17;;;1.60;;
15603;SDS011;7902;49.042;9.092;2023-03-15T13:49:17;14.67;;;1.90;;
15603;SDS011;7902;49.042;9.092;2023-03-15T13:51:43;10.70;;;1.50;;
15603;SDS011;7902;49.042;9.092;2023-03-15T13:54:25;15.37;;;1.80;;
15603;SDS011;7902;49.042;9.092;2023-03-15T13:59:20;15.77;;;2.90;;
15603;SDS011;7902;49.042;9.092;2023-03-15T14:01:48;16.07;;;2.20;;
15603;SDS011;7902;49.042;9.092;2023-03-15T14:04:18;17.37;;;2.10;;
15603;SDS011;7902;49.042;9.092;2023-03-15T14:06:46;9.20;;;1.40;;
15603;SDS011;7902;49.042;9.092;2023-03-15T14:09:18;12.50;;;2.13;;
15603;SDS011;7902;49.042;9.092;2023-03-15T14:11:58;9.53;;;1.30;;
15603;SDS011;7902;49.042;9.092;2023-03-15T14:14:27;10.00;;;1.67;;
15603;SDS011;7902;49.042;9.092;2023-03-15T14:16:55;10.77;;;2.17;;
15603;SDS011;7902;49.042;9.092;2023-03-15T14:19:23;14.67;;;1.60;;
15603;SDS011;7902;49.042;9.092;2023-03-15T14:21:52;10.20;;;1.30;;
15603;SDS011;7902;49.042;9.092;2023-03-15T14:24:31;10.37;;;1.57;;
15603;SDS011;7902;49.042;9.092;2023-03-15T14:27:05;9.20;;;1.40;;
15603;SDS011;7902;49.042;9.092;2023-03-15T14:29:34;10.20;;;1.83;;
15603;SDS011;7902;49.042;9.092;2023-03-15T14:32:05;11.73;;;2.37;;
15603;SDS011;7902;49.042;9.092;2023-03-15T14:34:34;11.87;;;2.00;;
15603;SDS011;7902;49.042;9.092;2023-03-15T14:37:26;12.67;;;2.63;;
15603;SDS011;7902;49.042;9.092;2023-03-15T14:40:05;11.20;;;1.67;;
15603;SDS011;7902;49.042;9.092;2023-03-15T14:42:40;16.50;;;2.03;;
15603;SDS011;7902;49.042;9.092;2023-03-15T14:45:07;12.73;;;1.60;;
15603;SDS011;7902;49.042;9.092;2023-03-15T14:47:34;12.23;;;1.73;;
15603;SDS011;7902;49.042;9.092;2023-03-15T14:50:08;17.43;;;2.10;;
15603;SDS011;7902;49.042;9.092;2023-03-15T14:52:39;12.63;;;1.60;;
15603;SDS011;7902;49.042;9.092;2023-03-15T14:55:17;10.70;;;1.40;;
15603;SDS011;7902;49.042;9.092;2023-03-15T14:57:46;16.70;;;1.60;;
15603;SDS011;7902;49.042;9.092;2023-03-15T15:00:12;9.77;;;1.40;;
15603;SDS011;7902;49.042;9.092;2023-03-15T15:02:42;11.90;;;1.80;;
15603;SDS011;7902;49.042;9.092;2023-03-15T15:05:28;10.80;;;1.93;;
15603;SDS011;7902;49.042;9.092;2023-03-15T15:07:58;10.97;;;1.70;;
15603;SDS011;7902;49.042;9.092;2023-03-15T15:10:46;10.80;;;1.80;;
15603;SDS011;7902;49.042;9.092;2023-03-15T15:13:21;10.50;;;1.50;;
15603;SDS011;7902;49.042;9.092;2023-03-15T15:15:48;14.10;;;2.00;;
15603;SDS011;7902;49.042;9.092;2023-03-15T15:18:15;10.40;;;2.00;;
15603;SDS011;7902;49.042;9.092;2023-03-15T15:20:41;13.30;;;2.47;;
15603;SDS011;7902;49.042;9.092;2023-03-15T15:23:08;10.70;;;2.20;;
15603;SDS011;7902;49.042;9.092;2023-03-15T15:25:43;12.97;;;2.37;;
15603;SDS011;7902;49.042;9.092;2023-03-15T15:28:09;10.77;;;1.80;;
15603;SDS011;7902;49.042;9.092;2023-03-15T15:30:37;12.00;;;1.80;;
15603;SDS011;7902;49.042;9.092;2023-03-15T15:33:03;12.47;;;2.37;;
15603;SDS011;7902;49.042;9.092;2023-03-15T15:35:29;14.27;;;3.53;;
15603;SDS011;7902;49.042;9.092;2023-03-15T15:37:55;13.30;;;2.70;;
15603;SDS011;7902;49.042;9.092;2023-03-15T15:40:29;13.47;;;2.67;;
15603;SDS011;7902;49.042;9.092;2023-03-15T15:42:56;12.37;;;2.37;;
15603;SDS011;7902;49.042;9.092;2023-03-15T15:45:22;14.70;;;2.70;;
15603;SDS011;7902;49.042;9.092;2023-03-15T15:47:50;18.37;;;5.10;;
15603;SDS011;7902;49.042;9.092;2023-03-15T15:50:17;12.10;;;2.53;;
15603;SDS011;7902;49.042;9.092;2023-03-15T15:52:46;12.40;;;3.00;;
15603;SDS011;7902;49.042;9.092;2023-03-15T15:55:18;17.47;;;3.87;;
15603;SDS011;7902;49.042;9.092;2023-03-15T15:57:47;10.60;;;2.37;;
15603;SDS011;7902;49.042;9.092;2023-03-15T16:00:15;13.00;;;2.30;;
15603;SDS011;7902;49.042;9.092;2023-03-15T16:02:44;14.53;;;2.63;;
15603;SDS011;7902;49.042;9.092;2023-03-15T16:05:11;13.37;;;2.83;;
15603;SDS011;7902;49.042;9.092;2023-03-15T16:07:37;13.23;;;2.70;;
15603;SDS011;7902;49.042;9.092;2023-03-15T16:10:05;11.73;;;2.63;;
15603;SDS011;7902;49.042;9.092;2023-03-15T16:12:36;12.43;;;2.90;;
15603;SDS011;7902;49.042;9.092;2023-03-15T16:15:02;10.47;;;2.07;;